sensor_id;sensor_type;location;lat;lon;timestamp;pressure;altitude;pressure_sealevel;temperature;humidity
78117;BME280;69042;59.120;37.904;2023-06-14T00:00:15;100624.31;;;15.06;57.30
78117;BME280;69042;59.120;37.904;2023-06-14T00:02:42;100624.47;;;15.03;57.55
78117;BME280;69042;59.120;37.904;2023-06-14T00:05:08;100622.88;;;15.00;57.29
78117;BME280;69042;59.120;37.904;2023-06-14T00:07:41;100623.47;;;15.05;57.28
78117;BME280;69042;59.120;37.904;2023-06-14T00:10:14;100623.16;;;15.11;57.29
78117;BME280;69042;59.120;37.904;2023-06-14T00:12:40;100617.66;;;15.16;56.87
78117;BME280;69042;59.120;37.904;2023-06-14T00:15:07;100623.50;;;15.21;57.47
78117;BME280;69042;59.120;37.904;2023-06-14T00:17:36;100625.13;;;15.24;57.46
78117;BME280;69042;59.120;37.904;2023-06-14T00:20:03;100632.94;;;15.25;57.50
78117;BME280;69042;59.120;37.904;2023-06-14T00:22:32;100625.88;;;15.26;57.63
78117;BME280;69042;59.120;37.904;2023-06-14T00:24:58;100628.44;;;15.27;57.68
78117;BME280;69042;59.120;37.904;2023-06-14T00:27:24;100634.56;;;15.28;57.69
78117;BME280;69042;59.120;37.904;2023-06-14T00:29:51;100638.13;;;15.27;57.84
78117;BME280;69042;59.120;37.904;2023-06-14T00:32:18;100633.72;;;15.27;57.72
78117;BME280;69042;59.120;37.904;2023-06-14T00:34:44;100639.66;;;15.31;57.54
78117;BME280;69042;59.120;37.904;2023-06-14T00:37:10;100629.81;;;15.34;57.36
78117;BME280;69042;59.120;37.904;2023-06-14T00:39:36;100640.03;;;15.40;57.54
78117;BME280;69042;59.120;37.904;2023-06-14T00:42:02;100636.19;;;15.46;57.36
78117;BME280;69042;59.120;37.904;2023-06-14T00:44:29;100629.06;;;15.48;57.30
78117;BME280;69042;59.120;37.904;2023-06-14T00:46:55;100634.34;;;15.48;57.47
78117;BME280;69042;59.120;37.904;2023-06-14T00:49:47;100630.84;;;15.48;57.56
78117;BME280;69042;59.120;37.904;2023-06-14T00:52:15;100630.00;;;15.47;57.86
78117;BME280;69042;59.120;37.904;2023-06-14T00:54:42;100627.47;;;15.46;57.88
78117;BME280;69042;59.120;37.904;2023-06-14T00:57:10;100624.75;;;15.47;57.88
78117;BME280;69042;59.120;37.904;2023-06-14T00:59:44;100626.44;;;15.48;57.21
78117;BME280;69042;59.120;37.904;2023-06-14T01:02:11;100631.44;;;15.53;57.35
78117;BME280;69042;59.120;37.904;2023-06-14T01:04:38;100628.66;;;15.56;57.07
78117;BME280;69042;59.120;37.904;2023-06-14T01:07:20;100617.13;;;15.58;56.97
78117;BME280;69042;59.120;37.904;2023-06-14T01:13:12;100619.56;;;15.61;56.59
78117;BME280;69042;59.120;37.904;2023-06-14T01:15:43;100613.72;;;15.56;56.67
78117;BME280;69042;59.120;37.904;2023-06-14T01:18:10;100605.19;;;15.51;57.03
78117;BME280;69042;59.120;37.904;2023-06-14T01:20:44;100609.88;;;15.46;57.13
78117;BME280;69042;59.120;37.904;2023-06-14T01:23:11;100613.69;;;15.40;57.39
78117;BME280;69042;59.120;37.904;2023-06-14T01:25:38;100614.72;;;15.38;57.43
78117;BME280;69042;59.120;37.904;2023-06-14T01:28:06;100615.63;;;15.37;57.64
78117;BME280;69042;59.120;37.904;2023-06-14T01:30:38;100606.03;;;15.36;57.60
78117;BME280;69042;59.120;37.904;2023-06-14T01:33:05;100606.81;;;15.38;57.66
78117;BME280;69042;59.120;37.904;2023-06-14T01:35:31;100605.09;;;15.37;57.62
78117;BME280;69042;59.120;37.904;2023-06-14T01:37:58;100607.66;;;15.38;57.88
78117;BME280;69042;59.120;37.904;2023-06-14T01:40:24;100613.78;;;15.39;57.56
78117;BME280;69042;59.120;37.904;2023-06-14T01:42:51;100608.31;;;15.42;57.58
78117;BME280;69042;59.120;37.904;2023-06-14T01:45:18;100606.47;;;15.44;57.70
78117;BME280;69042;59.120;37.904;2023-06-14T01:47:45;100605.44;;;15.47;57.87
78117;BME280;69042;59.120;37.904;2023-06-14T01:50:12;100608.94;;;15.47;57.68
78117;BME280;69042;59.120;37.904;2023-06-14T01:52:39;100611.47;;;15.49;57.41
78117;BME280;69042;59.120;37.904;2023-06-14T01:55:05;100608.84;;;15.49;57.23
78117;BME280;69042;59.120;37.904;2023-06-14T01:57:32;100609.53;;;15.52;56.68
78117;BME280;69042;59.120;37.904;2023-06-14T01:59:59;100609.47;;;15.54;56.74
78117;BME280;69042;59.120;37.904;2023-06-14T02:02:25;100613.59;;;15.58;56.80
78117;BME280;69042;59.120;37.904;2023-06-14T02:04:52;100599.34;;;15.62;56.75
78117;BME280;69042;59.120;37.904;2023-06-14T02:07:18;100596.56;;;15.65;56.88
78117;BME280;69042;59.120;37.904;2023-06-14T02:09:44;100601.56;;;15.70;56.66
78117;BME280;69042;59.120;37.904;2023-06-14T02:12:11;100603.97;;;15.74;56.35
78117;BME280;69042;59.120;37.904;2023-06-14T02:14:37;100614.06;;;15.82;56.37
78117;BME280;69042;59.120;37.904;2023-06-14T02:17:04;100605.00;;;15.88;55.67
78117;BME280;69042;59.120;37.904;2023-06-14T02:19:30;100597.75;;;15.91;55.17
78117;BME280;69042;59.120;37.904;2023-06-14T02:21:56;100605.31;;;15.97;54.70
78117;BME280;69042;59.120;37.904;2023-06-14T02:24:22;100596.44;;;15.98;54.36
78117;BME280;69042;59.120;37.904;2023-06-14T02:26:49;100595.25;;;16.04;54.00
78117;BME280;69042;59.120;37.904;2023-06-14T02:29:16;100589.72;;;16.09;54.08
78117;BME280;69042;59.120;37.904;2023-06-14T02:31:42;100594.81;;;16.12;54.04
78117;BME280;69042;59.120;37.904;2023-06-14T02:34:08;100599.75;;;16.18;53.80
78117;BME280;69042;59.120;37.904;2023-06-14T02:36:35;100592.78;;;16.17;53.57
78117;BME280;69042;59.120;37.904;2023-06-14T02:39:03;100603.13;;;16.20;53.42
78117;BME280;69042;59.120;37.904;2023-06-14T02:41:29;100602.31;;;16.19;53.42
78117;BME280;69042;59.120;37.904;2023-06-14T02:43:55;100603.13;;;16.20;53.42
78117;BME280;69042;59.120;37.904;2023-06-14T02:46:22;100598.91;;;16.17;53.28
78117;BME280;69042;59.120;37.904;2023-06-14T02:48:49;100593.44;;;16.20;53.16
78117;BME280;69042;59.120;37.904;2023-06-14T02:51:15;100600.50;;;16.20;53.14
78117;BME280;69042;59.120;37.904;2023-06-14T02:53:41;100596.19;;;16.19;53.23
78117;BME280;69042;59.120;37.904;2023-06-14T02:56:08;100595.31;;;16.18;53.14
78117;BME280;69042;59.120;37.904;2023-06-14T02:58:36;100594.19;;;16.22;53.37
78117;BME280;69042;59.120;37.904;2023-06-14T03:01:02;100598.38;;;16.27;53.38
78117;BME280;69042;59.120;37.904;2023-06-14T03:03:29;100598.00;;;16.33;53.65
78117;BME280;69042;59.120;37.904;2023-06-14T03:05:56;100608.88;;;16.42;53.23
78117;BME280;69042;59.120;37.904;2023-06-14T03:08:26;100614.44;;;16.52;53.53
78117;BME280;69042;59.120;37.904;2023-06-14T03:10:57;100612.13;;;16.62;53.47
78117;BME280;69042;59.120;37.904;2023-06-14T03:13:25;100613.25;;;16.72;53.39
78117;BME280;69042;59.120;37.904;2023-06-14T03:15:53;100610.03;;;16.83;53.33
78117;BME280;69042;59.120;37.904;2023-06-14T03:18:20;100605.13;;;16.91;53.13
78117;BME280;69042;59.120;37.904;2023-06-14T03:20:50;100607.31;;;16.99;53.23
78117;BME280;69042;59.120;37.904;2023-06-14T03:23:18;100607.56;;;17.09;53.35
78117;BME280;69042;59.120;37.904;2023-06-14T03:25:44;100615.88;;;17.17;53.38
78117;BME280;69042;59.120;37.904;2023-06-14T03:28:12;100621.44;;;17.26;53.39
78117;BME280;69042;59.120;37.904;2023-06-14T03:30:39;100625.38;;;17.34;53.64
78117;BME280;69042;59.120;37.904;2023-06-14T03:33:05;100618.06;;;17.39;53.83
78117;BME280;69042;59.120;37.904;2023-06-14T03:35:36;100620.28;;;17.45;53.51
78117;BME280;69042;59.120;37.904;2023-06-14T03:38:02;100611.22;;;17.49;53.54
78117;BME280;69042;59.120;37.904;2023-06-14T03:40:29;100613.56;;;17.54;53.53
78117;BME280;69042;59.120;37.904;2023-06-14T03:43:01;100610.94;;;17.54;53.40
78117;BME280;69042;59.120;37.904;2023-06-14T03:45:27;100613.56;;;17.54;53.49
78117;BME280;69042;59.120;37.904;2023-06-14T03:47:54;100605.00;;;17.50;53.12
78117;BME280;69042;59.120;37.904;2023-06-14T03:50:20;100609.53;;;17.48;52.99
78117;BME280;69042;59.120;37.904;2023-06-14T03:52:48;100607.81;;;17.47;52.89
78117;BME280;69042;59.120;37.904;2023-06-14T03:55:16;100597.47;;;17.44;52.78
78117;BME280;69042;59.120;37.904;2023-06-14T03:57:42;100599.81;;;17.48;52.81
78117;BME280;69042;59.120;37.904;2023-06-14T04:00:12;100602.47;;;17.48;52.35
78117;BME280;69042;59.120;37.904;2023-06-14T04:02:42;100602.38;;;17.50;52.60
78117;BME280;69042;59.120;37.904;2023-06-14T04:05:10;100603.97;;;17.53;52.43
78117;BME280;69042;59.120;37.904;2023-06-14T04:07:40;100606.59;;;17.53;52.21
78117;BME280;69042;59.120;37.904;2023-06-14T04:10:15;100604.81;;;17.53;52.63
78117;BME280;69042;59.120;37.904;2023-06-14T04:12:42;100605.47;;;17.57;52.43
78117;BME280;69042;59.120;37.904;2023-06-14T04:15:09;100593.78;;;17.61;52.77
78117;BME280;69042;59.120;37.904;2023-06-14T04:17:36;100592.50;;;17.66;52.53
78117;BME280;69042;59.120;37.904;2023-06-14T04:20:05;100587.91;;;17.70;52.59
78117;BME280;69042;59.120;37.904;2023-06-14T04:22:33;100591.75;;;17.79;52.26
78117;BME280;69042;59.120;37.904;2023-06-14T04:24:59;100588.63;;;17.86;52.61
78117;BME280;69042;59.120;37.904;2023-06-14T04:27:27;100586.63;;;17.90;52.22
78117;BME280;69042;59.120;37.904;2023-06-14T04:29:55;100585.38;;;17.96;52.75
78117;BME280;69042;59.120;37.904;2023-06-14T04:32:32;100580.94;;;17.96;52.98
78117;BME280;69042;59.120;37.904;2023-06-14T04:35:07;100587.56;;;17.89;52.91
78117;BME280;69042;59.120;37.904;2023-06-14T04:37:34;100586.28;;;17.82;53.41
78117;BME280;69042;59.120;37.904;2023-06-14T04:40:01;100589.38;;;17.74;53.37
78117;BME280;69042;59.120;37.904;2023-06-14T04:42:27;100583.53;;;17.69;53.65
78117;BME280;69042;59.120;37.904;2023-06-14T04:44:58;100581.09;;;17.66;54.13
78117;BME280;69042;59.120;37.904;2023-06-14T04:47:25;100586.31;;;17.67;53.97
78117;BME280;69042;59.120;37.904;2023-06-14T04:49:58;100586.19;;;17.69;54.30
78117;BME280;69042;59.120;37.904;2023-06-14T04:52:29;100586.94;;;17.71;54.20
78117;BME280;69042;59.120;37.904;2023-06-14T04:54:56;100585.13;;;17.72;54.33
78117;BME280;69042;59.120;37.904;2023-06-14T04:57:23;100582.31;;;17.75;54.38
78117;BME280;69042;59.120;37.904;2023-06-14T04:59:52;100589.19;;;17.77;54.60
78117;BME280;69042;59.120;37.904;2023-06-14T05:02:24;100588.13;;;17.80;54.52
78117;BME280;69042;59.120;37.904;2023-06-14T05:04:53;100584.53;;;17.81;54.43
78117;BME280;69042;59.120;37.904;2023-06-14T05:07:20;100583.44;;;17.85;54.52
78117;BME280;69042;59.120;37.904;2023-06-14T05:09:48;100587.47;;;17.91;54.56
78117;BME280;69042;59.120;37.904;2023-06-14T05:12:14;100587.94;;;17.97;54.49
78117;BME280;69042;59.120;37.904;2023-06-14T05:14:45;100588.25;;;18.05;54.15
78117;BME280;69042;59.120;37.904;2023-06-14T05:17:11;100588.69;;;18.12;54.08
78117;BME280;69042;59.120;37.904;2023-06-14T05:19:37;100585.56;;;18.20;54.44
78117;BME280;69042;59.120;37.904;2023-06-14T05:22:03;100586.00;;;18.26;54.17
78117;BME280;69042;59.120;37.904;2023-06-14T05:24:30;100580.19;;;18.34;54.22
78117;BME280;69042;59.120;37.904;2023-06-14T05:26:56;100580.72;;;18.39;53.71
78117;BME280;69042;59.120;37.904;2023-06-14T05:29:22;100586.44;;;18.46;53.67
78117;BME280;69042;59.120;37.904;2023-06-14T05:31:48;100585.81;;;18.55;53.51
78117;BME280;69042;59.120;37.904;2023-06-14T05:34:14;100581.59;;;18.65;53.79
78117;BME280;69042;59.120;37.904;2023-06-14T05:36:41;100585.25;;;18.77;53.66
78117;BME280;69042;59.120;37.904;2023-06-14T05:39:07;100580.78;;;18.90;53.65
78117;BME280;69042;59.120;37.904;2023-06-14T05:41:34;100580.66;;;19.05;53.74
78117;BME280;69042;59.120;37.904;2023-06-14T05:44:01;100578.00;;;19.18;53.37
78117;BME280;69042;59.120;37.904;2023-06-14T05:46:27;100581.47;;;19.31;53.11
78117;BME280;69042;59.120;37.904;2023-06-14T05:48:54;100583.13;;;19.45;52.98
78117;BME280;69042;59.120;37.904;2023-06-14T05:51:21;100580.56;;;19.56;52.40
78117;BME280;69042;59.120;37.904;2023-06-14T05:53:48;100580.56;;;19.69;52.00
78117;BME280;69042;59.120;37.904;2023-06-14T05:56:15;100579.44;;;19.84;51.99
78117;BME280;69042;59.120;37.904;2023-06-14T05:58:41;100583.63;;;20.00;51.44
78117;BME280;69042;59.120;37.904;2023-06-14T06:01:08;100590.31;;;20.16;51.40
78117;BME280;69042;59.120;37.904;2023-06-14T06:03:34;100584.59;;;20.34;51.37
78117;BME280;69042;59.120;37.904;2023-06-14T06:06:00;100583.44;;;20.49;50.83
78117;BME280;69042;59.120;37.904;2023-06-14T06:08:27;100587.72;;;20.63;50.23
78117;BME280;69042;59.120;37.904;2023-06-14T06:10:53;100587.28;;;20.81;50.19
78117;BME280;69042;59.120;37.904;2023-06-14T06:13:19;100587.50;;;21.00;49.75
78117;BME280;69042;59.120;37.904;2023-06-14T06:15:45;100592.25;;;21.19;49.93
78117;BME280;69042;59.120;37.904;2023-06-14T06:18:12;100591.72;;;21.36;49.17
78117;BME280;69042;59.120;37.904;2023-06-14T06:20:38;100591.25;;;21.54;49.37
78117;BME280;69042;59.120;37.904;2023-06-14T06:23:04;100591.47;;;21.73;48.62
78117;BME280;69042;59.120;37.904;2023-06-14T06:25:30;100588.50;;;21.88;48.22
78117;BME280;69042;59.120;37.904;2023-06-14T06:27:57;100593.31;;;22.05;47.90
78117;BME280;69042;59.120;37.904;2023-06-14T06:30:24;100591.31;;;22.18;47.41
78117;BME280;69042;59.120;37.904;2023-06-14T06:32:51;100588.34;;;22.33;47.40
78117;BME280;69042;59.120;37.904;2023-06-14T06:35:17;100586.34;;;22.46;46.89
78117;BME280;69042;59.120;37.904;2023-06-14T06:37:43;100591.50;;;22.59;46.67
78117;BME280;69042;59.120;37.904;2023-06-14T06:40:09;100593.38;;;22.68;45.97
78117;BME280;69042;59.120;37.904;2023-06-14T06:42:36;100599.72;;;22.77;46.21
78117;BME280;69042;59.120;37.904;2023-06-14T06:45:05;100593.28;;;22.79;45.73
78117;BME280;69042;59.120;37.904;2023-06-14T06:47:32;100593.75;;;22.84;45.84
78117;BME280;69042;59.120;37.904;2023-06-14T06:49:58;100602.16;;;22.90;44.91
78117;BME280;69042;59.120;37.904;2023-06-14T06:52:24;100591.50;;;22.90;44.82
78117;BME280;69042;59.120;37.904;2023-06-14T06:54:50;100590.66;;;22.89;44.66
78117;BME280;69042;59.120;37.904;2023-06-14T06:57:21;100586.06;;;22.91;44.02
78117;BME280;69042;59.120;37.904;2023-06-14T06:59:48;100592.81;;;22.95;44.35
78117;BME280;69042;59.120;37.904;2023-06-14T07:02:15;100591.25;;;22.93;43.37
78117;BME280;69042;59.120;37.904;2023-06-14T07:04:41;100595.75;;;22.92;42.98
78117;BME280;69042;59.120;37.904;2023-06-14T07:07:08;100590.66;;;22.89;42.85
78117;BME280;69042;59.120;37.904;2023-06-14T07:09:35;100590.66;;;22.89;42.63
78117;BME280;69042;59.120;37.904;2023-06-14T07:12:02;100592.50;;;22.89;42.09
78117;BME280;69042;59.120;37.904;2023-06-14T07:14:28;100585.34;;;22.89;42.21
78117;BME280;69042;59.120;37.904;2023-06-14T07:16:55;100587.16;;;22.89;42.10
78117;BME280;69042;59.120;37.904;2023-06-14T07:19:22;100590.94;;;22.86;41.83
78117;BME280;69042;59.120;37.904;2023-06-14T07:21:48;100592.63;;;22.87;41.80
78117;BME280;69042;59.120;37.904;2023-06-14T07:24:14;100591.50;;;22.90;41.40
78117;BME280;69042;59.120;37.904;2023-06-14T07:26:40;100592.22;;;22.92;40.52
78117;BME280;69042;59.120;37.904;2023-06-14T07:29:06;100591.38;;;22.91;40.75
78117;BME280;69042;59.120;37.904;2023-06-14T07:31:33;100594.78;;;22.93;40.42
78117;BME280;69042;59.120;37.904;2023-06-14T07:33:59;100594.66;;;22.95;40.07
78117;BME280;69042;59.120;37.904;2023-06-14T07:36:26;100597.16;;;22.96;39.37
78117;BME280;69042;59.120;37.904;2023-06-14T07:38:52;100592.81;;;22.95;38.57
78117;BME280;69042;59.120;37.904;2023-06-14T07:41:18;100591.97;;;22.95;38.46
78117;BME280;69042;59.120;37.904;2023-06-14T07:43:44;100593.53;;;22.97;37.76
78117;BME280;69042;59.120;37.904;2023-06-14T07:46:10;100600.31;;;23.01;37.67
78117;BME280;69042;59.120;37.904;2023-06-14T07:48:36;100598.22;;;23.05;37.71
78117;BME280;69042;59.120;37.904;2023-06-14T07:51:02;100591.06;;;23.05;37.40
78117;BME280;69042;59.120;37.904;2023-06-14T07:53:29;100590.81;;;23.09;37.32
78117;BME280;69042;59.120;37.904;2023-06-14T07:55:56;100590.66;;;23.10;37.62
78117;BME280;69042;59.120;37.904;2023-06-14T07:58:22;100591.94;;;23.16;37.27
78117;BME280;69042;59.120;37.904;2023-06-14T08:00:48;100587.22;;;23.19;37.33
78117;BME280;69042;59.120;37.904;2023-06-14T08:03:15;100582.19;;;23.26;37.49
78117;BME280;69042;59.120;37.904;2023-06-14T08:05:41;100584.44;;;23.31;37.09
78117;BME280;69042;59.120;37.904;2023-06-14T08:08:07;100588.66;;;23.33;37.13
78117;BME280;69042;59.120;37.904;2023-06-14T08:10:34;100583.88;;;23.37;36.85
78117;BME280;69042;59.120;37.904;2023-06-14T08:13:00;100579.00;;;23.42;36.47
78117;BME280;69042;59.120;37.904;2023-06-14T08:15:26;100586.31;;;23.49;36.48
78117;BME280;69042;59.120;37.904;2023-06-14T08:17:52;100590.13;;;23.57;36.24
78117;BME280;69042;59.120;37.904;2023-06-14T08:20:18;100581.69;;;23.61;35.80
78117;BME280;69042;59.120;37.904;2023-06-14T08:22:44;100597.44;;;23.64;35.79
78117;BME280;69042;59.120;37.904;2023-06-14T08:25:12;100589.75;;;23.71;35.82
78117;BME280;69042;59.120;37.904;2023-06-14T08:27:39;100592.56;;;23.79;35.55
78117;BME280;69042;59.120;37.904;2023-06-14T08:30:06;100589.66;;;23.92;35.25
78117;BME280;69042;59.120;37.904;2023-06-14T08:32:34;100586.00;;;24.13;35.44
78117;BME280;69042;59.120;37.904;2023-06-14T08:35:00;100586.25;;;24.29;35.61
78117;BME280;69042;59.120;37.904;2023-06-14T08:37:26;100594.28;;;24.39;35.70
78117;BME280;69042;59.120;37.904;2023-06-14T08:39:52;100587.13;;;24.49;34.30
78117;BME280;69042;59.120;37.904;2023-06-14T08:42:18;100587.53;;;24.54;34.60
78117;BME280;69042;59.120;37.904;2023-06-14T08:44:47;100586.56;;;24.55;34.36
78117;BME280;69042;59.120;37.904;2023-06-14T08:47:14;100581.91;;;24.47;34.07
78117;BME280;69042;59.120;37.904;2023-06-14T08:49:45;100578.25;;;24.39;34.46
78117;BME280;69042;59.120;37.904;2023-06-14T08:52:13;100583.03;;;24.35;34.02
78117;BME280;69042;59.120;37.904;2023-06-14T08:54:44;100581.59;;;24.41;33.52
78117;BME280;69042;59.120;37.904;2023-06-14T08:57:11;100580.09;;;24.48;33.20
78117;BME280;69042;59.120;37.904;2023-06-14T08:59:46;100572.91;;;24.58;33.17
78117;BME280;69042;59.120;37.904;2023-06-14T09:02:15;100583.59;;;24.68;33.72
78117;BME280;69042;59.120;37.904;2023-06-14T09:04:44;100574.13;;;24.73;33.25
78117;BME280;69042;59.120;37.904;2023-06-14T09:07:11;100573.38;;;24.81;33.08
78117;BME280;69042;59.120;37.904;2023-06-14T09:09:39;100570.56;;;24.83;33.00
78117;BME280;69042;59.120;37.904;2023-06-14T09:12:07;100560.72;;;24.83;32.95
78117;BME280;69042;59.120;37.904;2023-06-14T09:14:35;100569.88;;;24.90;32.56
78117;BME280;69042;59.120;37.904;2023-06-14T09:17:06;100568.13;;;24.99;32.61
78117;BME280;69042;59.120;37.904;2023-06-14T09:19:34;100563.88;;;25.06;32.21
78117;BME280;69042;59.120;37.904;2023-06-14T09:22:03;100567.09;;;25.10;31.70
78117;BME280;69042;59.120;37.904;2023-06-14T09:24:29;100557.94;;;25.12;31.98
78117;BME280;69042;59.120;37.904;2023-06-14T09:26:55;100558.50;;;25.16;32.17
78117;BME280;69042;59.120;37.904;2023-06-14T09:29:23;100557.06;;;25.22;31.76
78117;BME280;69042;59.120;37.904;2023-06-14T09:31:49;100551.97;;;25.28;31.62
78117;BME280;69042;59.120;37.904;2023-06-14T09:34:16;100560.66;;;25.40;31.94
78117;BME280;69042;59.120;37.904;2023-06-14T09:36:45;100546.19;;;25.51;32.20
78117;BME280;69042;59.120;37.904;2023-06-14T09:39:16;100558.84;;;25.59;31.92
78117;BME280;69042;59.120;37.904;2023-06-14T09:41:43;100539.34;;;25.66;31.74
78117;BME280;69042;59.120;37.904;2023-06-14T09:44:11;100540.59;;;25.72;31.08
78117;BME280;69042;59.120;37.904;2023-06-14T09:46:38;100537.72;;;25.73;31.08
78117;BME280;69042;59.120;37.904;2023-06-14T09:49:08;100535.91;;;25.74;31.17
78117;BME280;69042;59.120;37.904;2023-06-14T09:51:42;100536.16;;;25.81;31.74
78117;BME280;69042;59.120;37.904;2023-06-14T09:54:16;100537.28;;;25.96;31.12
78117;BME280;69042;59.120;37.904;2023-06-14T09:56:47;100531.88;;;26.06;30.82
78117;BME280;69042;59.120;37.904;2023-06-14T09:59:19;100528.03;;;26.08;31.06
78117;BME280;69042;59.120;37.904;2023-06-14T10:01:50;100533.47;;;26.16;31.50
78117;BME280;69042;59.120;37.904;2023-06-14T10:04:18;100527.31;;;26.24;31.35
78117;BME280;69042;59.120;37.904;2023-06-14T10:06:47;100530.75;;;26.34;30.82
78117;BME280;69042;59.120;37.904;2023-06-14T10:09:13;100528.09;;;26.34;30.50
78117;BME280;69042;59.120;37.904;2023-06-14T10:11:40;100515.81;;;26.32;30.31
78117;BME280;69042;59.120;37.904;2023-06-14T10:14:11;100523.38;;;26.36;30.43
78117;BME280;69042;59.120;37.904;2023-06-14T10:17:05;100517.19;;;26.36;29.83
78117;BME280;69042;59.120;37.904;2023-06-14T10:20:37;100514.56;;;26.44;30.11
78117;BME280;69042;59.120;37.904;2023-06-14T10:23:03;100511.03;;;26.62;30.32
78117;BME280;69042;59.120;37.904;2023-06-14T10:25:33;100521.16;;;26.76;30.20
78117;BME280;69042;59.120;37.904;2023-06-14T10:28:25;100514.28;;;26.82;29.98
78117;BME280;69042;59.120;37.904;2023-06-14T10:31:11;100500.59;;;26.85;30.25
78117;BME280;69042;59.120;37.904;2023-06-14T10:33:48;100509.81;;;26.90;30.13
78117;BME280;69042;59.120;37.904;2023-06-14T10:36:26;100511.91;;;27.05;30.15
78117;BME280;69042;59.120;37.904;2023-06-14T10:39:14;100505.56;;;27.14;30.18
78117;BME280;69042;59.120;37.904;2023-06-14T10:41:41;100502.75;;;27.24;30.44
78117;BME280;69042;59.120;37.904;2023-06-14T10:44:31;100508.19;;;27.48;30.27
78117;BME280;69042;59.120;37.904;2023-06-14T10:47:01;100499.84;;;27.68;29.82
78117;BME280;69042;59.120;37.904;2023-06-14T10:52:18;100503.22;;;27.86;29.28
78117;BME280;69042;59.120;37.904;2023-06-14T10:55:09;100500.69;;;27.76;28.88
78117;BME280;69042;59.120;37.904;2023-06-14T10:57:47;100500.81;;;27.67;28.74
78117;BME280;69042;59.120;37.904;2023-06-14T11:00:21;100482.69;;;27.69;29.06
78117;BME280;69042;59.120;37.904;2023-06-14T11:05:59;100490.44;;;27.96;28.93
78117;BME280;69042;59.120;37.904;2023-06-14T11:11:17;100483.69;;;28.50;28.99
78117;BME280;69042;59.120;37.904;2023-06-14T11:13:45;100484.56;;;28.90;28.27
78117;BME280;69042;59.120;37.904;2023-06-14T11:16:13;100483.59;;;29.45;27.99
78117;BME280;69042;59.120;37.904;2023-06-14T11:18:41;100479.28;;;30.05;27.46
78117;BME280;69042;59.120;37.904;2023-06-14T11:21:08;100483.44;;;30.75;27.53
78117;BME280;69042;59.120;37.904;2023-06-14T11:23:35;100485.66;;;31.38;26.76
78117;BME280;69042;59.120;37.904;2023-06-14T11:26:02;100465.16;;;31.86;26.82
78117;BME280;69042;59.120;37.904;2023-06-14T11:28:40;100470.91;;;32.61;26.16
78117;BME280;69042;59.120;37.904;2023-06-14T11:31:07;100466.19;;;33.31;25.35
78117;BME280;69042;59.120;37.904;2023-06-14T11:33:34;100462.50;;;34.06;24.67
78117;BME280;69042;59.120;37.904;2023-06-14T11:36:05;100461.53;;;34.72;23.91
78117;BME280;69042;59.120;37.904;2023-06-14T11:38:37;100456.78;;;35.06;23.46
78117;BME280;69042;59.120;37.904;2023-06-14T11:41:03;100462.75;;;35.59;22.67
78117;BME280;69042;59.120;37.904;2023-06-14T11:43:29;100461.75;;;36.29;22.53
78117;BME280;69042;59.120;37.904;2023-06-14T11:45:57;100461.69;;;36.91;21.35
78117;BME280;69042;59.120;37.904;2023-06-14T11:48:23;100454.03;;;37.42;21.07
78117;BME280;69042;59.120;37.904;2023-06-14T11:51:01;100458.28;;;37.80;20.86
78117;BME280;69042;59.120;37.904;2023-06-14T11:53:27;100455.44;;;37.63;19.92
78117;BME280;69042;59.120;37.904;2023-06-14T11:55:53;100460.88;;;37.21;19.77
78117;BME280;69042;59.120;37.904;2023-06-14T11:58:19;100454.78;;;36.52;19.90
78117;BME280;69042;59.120;37.904;2023-06-14T12:00:49;100455.66;;;35.58;20.44
78117;BME280;69042;59.120;37.904;2023-06-14T12:03:15;100449.84;;;34.78;20.55
78117;BME280;69042;59.120;37.904;2023-06-14T12:05:41;100451.34;;;34.67;21.45
78117;BME280;69042;59.120;37.904;2023-06-14T12:08:07;100443.56;;;35.54;21.48
78117;BME280;69042;59.120;37.904;2023-06-14T12:10:40;100435.22;;;36.61;20.94
78117;BME280;69042;59.120;37.904;2023-06-14T12:13:10;100435.31;;;37.34;20.39
78117;BME280;69042;59.120;37.904;2023-06-14T12:15:36;100432.22;;;37.84;19.87
78117;BME280;69042;59.120;37.904;2023-06-14T12:18:06;100426.47;;;38.32;19.45
78117;BME280;69042;59.120;37.904;2023-06-14T12:20:35;100435.56;;;38.73;19.29
78117;BME280;69042;59.120;37.904;2023-06-14T12:23:03;100430.66;;;39.33;19.85
78117;BME280;69042;59.120;37.904;2023-06-14T12:25:34;100443.94;;;40.09;18.79
78117;BME280;69042;59.120;37.904;2023-06-14T12:28:05;100422.44;;;40.62;17.88
78117;BME280;69042;59.120;37.904;2023-06-14T12:30:33;100428.09;;;41.26;17.80
78117;BME280;69042;59.120;37.904;2023-06-14T12:32:59;100423.75;;;41.68;17.07
78117;BME280;69042;59.120;37.904;2023-06-14T12:35:26;100418.41;;;41.88;16.88
78117;BME280;69042;59.120;37.904;2023-06-14T12:37:52;100414.34;;;41.96;16.47
78117;BME280;69042;59.120;37.904;2023-06-14T12:40:18;100413.00;;;41.98;16.24
78117;BME280;69042;59.120;37.904;2023-06-14T12:42:45;100406.72;;;41.98;15.84
78117;BME280;69042;59.120;37.904;2023-06-14T12:45:13;100409.09;;;41.89;16.47
78117;BME280;69042;59.120;37.904;2023-06-14T12:47:39;100408.28;;;41.89;15.90
78117;BME280;69042;59.120;37.904;2023-06-14T12:50:06;100404.94;;;41.49;16.30
78117;BME280;69042;59.120;37.904;2023-06-14T12:52:32;100403.91;;;40.96;16.59
78117;BME280;69042;59.120;37.904;2023-06-14T12:55:05;100402.00;;;40.96;16.56
78117;BME280;69042;59.120;37.904;2023-06-14T12:57:31;100399.19;;;41.46;16.18